Time;durP1;ratioP1;P1;durP2;ratioP2;P2;SDS_P1;SDS_P2;PMS_P1;PMS_P2;Temp;Humidity;BMP_temperature;BMP_pressure;BME280_temperature;BME280_humidity;BME280_pressure;Samples;Min_cycle;Max_cycle;Signal;HPM_P1;HPM_P2
2023/01/26 00:00:23;;;;;;;27.83;14.27;;;1.90;1.00;;;;;;6033204;23;20238;-91
2023/01/26 00:03:37;;;;;;;26.40;13.60;;;1.80;1.00;;;;;;6070853;23;20212;-92
2023/01/26 00:21:27;;;;;;;25.00;13.33;;;1.90;1.00;;;;;;5941894;23;20349;-92
2023/01/26 00:29:53;;;;;;;25.85;13.40;;;1.70;1.00;;;;;;6220423;22;20239;-92
2023/01/26 00:32:35;;;;;;;25.92;13.40;;;1.80;1.00;;;;;;6202020;22;20214;-92
2023/01/26 00:35:18;;;;;;;;;;;;;;;;;;;;;
2023/01/26 00:38:16;;;;;;;27.50;14.63;;;1.80;1.00;;;;;;6210367;22;51132;-91
2023/01/26 00:40:56;;;;;;;25.45;13.88;;;1.80;1.00;;;;;;6072500;23;21083;-91
2023/01/26 00:52:33;;;;;;;;;;;;;;;;;;;;;
2023/01/26 00:55:28;;;;;;;;;;;;;;;;;;;;;
2023/01/26 00:58:28;;;;;;;;;;;;;;;;;;;;;
2023/01/26 01:01:39;;;;;;;;;;;;;;;;;;;;;
2023/01/26 01:07:04;;;;;;;32.30;15.55;;;1.80;1.00;;;;;;6164836;22;20208;-91
2023/01/26 01:10:13;;;;;;;;;;;;;;;;;;;;;
2023/01/26 01:13:09;;;;;;;28.25;14.68;;;1.80;1.00;;;;;;6120537;22;20343;-93
2023/01/26 01:16:00;;;;;;;;;;;;;;;;;;;;;
2023/01/26 01:18:39;;;;;;;29.77;15.48;;;1.80;1.00;;;;;;6159131;23;39581;-92
2023/01/26 01:21:27;;;;;;;;;;;;;;;;;;;;;
2023/01/26 01:24:38;;;;;;;;;;;;;;;;;;;;;
2023/01/26 01:27:20;;;;;;;24.10;13.85;;;1.80;1.00;;;;;;6217314;22;20256;-90
2023/01/26 01:30:08;;;;;;;;;;;;;;;;;;;;;
2023/01/26 01:32:53;;;;;;;;;;;;;;;;;;;;;
2023/01/26 01:35:56;;;;;;;26.35;13.60;;;1.70;1.00;;;;;;6185982;23;40125;-89
2023/01/26 01:41:57;;;;;;;23.80;13.57;;;1.70;1.00;;;;;;6025188;23;20234;-92
2023/01/26 01:45:06;;;;;;;24.83;12.55;;;1.80;1.00;;;;;;5986409;23;20237;-92
2023/01/26 01:59:56;;;;;;;21.00;11.60;;;1.70;1.00;;;;;;6066720;22;20209;-93
2023/01/26 02:05:30;;;;;;;;;;;;;;;;;;;;;
2023/01/26 02:08:38;;;;;;;;;;;;;;;;;;;;;
2023/01/26 02:11:46;;;;;;;26.35;13.57;;;1.80;1.00;;;;;;6138860;23;50053;-92
2023/01/26 02:17:26;;;;;;;26.75;14.30;;;1.70;1.00;;;;;;6192909;22;20205;-91
2023/01/26 02:20:36;;;;;;;28.77;14.63;;;1.70;1.00;;;;;;6114791;23;20351;-93
2023/01/26 02:23:28;;;;;;;;;;;;;;;;;;;;;
2023/01/26 02:26:27;;;;;;;26.77;13.82;;;1.70;1.00;;;;;;6213850;22;49430;-93
2023/01/26 02:29:37;;;;;;;28.10;14.40;;;1.70;1.00;;;;;;6192163;23;20217;-92
2023/01/26 02:35:16;;;;;;;31.23;16.60;;;1.70;1.00;;;;;;6211303;23;20921;-92
2023/01/26 02:38:08;;;;;;;;;;;;;;;;;;;;;
2023/01/26 02:40:55;;;;;;;25.08;14.20;;;1.80;1.00;;;;;;6203495;23;49078;-93
2023/01/26 02:43:43;;;;;;;;;;;;;;;;;;;;;
2023/01/26 02:49:59;;;;;;;;;;;;;;;;;;;;;
2023/01/26 02:52:46;;;;;;;30.50;16.42;;;1.80;1.00;;;;;;6204962;22;38068;-93
2023/01/26 02:55:27;;;;;;;25.15;14.02;;;1.90;1.00;;;;;;6206120;22;20223;-93
2023/01/26 02:58:06;;;;;;;27.20;15.32;;;1.90;1.00;;;;;;6212754;22;20673;-91
2023/01/26 03:03:40;;;;;;;29.60;16.05;;;1.80;1.00;;;;;;6212943;22;20440;-93
2023/01/26 03:06:45;;;;;;;;;;;;;;;;;;;;;
2023/01/26 03:09:38;;;;;;;;;;;;;;;;;;;;;
2023/01/26 03:12:18;;;;;;;;;;;;;;;;;;;;;
2023/01/26 03:27:28;;;;;;;30.65;16.95;;;1.80;1.00;;;;;;6152755;23;20636;-92
2023/01/26 03:30:06;;;;;;;32.10;18.83;;;1.80;1.00;;;;;;6198009;22;20236;-92
2023/01/26 03:32:47;;;;;;;30.88;17.90;;;1.80;1.00;;;;;;6206423;22;20245;-91
2023/01/26 03:36:01;;;;;;;;;;;;;;;;;;;;;
2023/01/26 03:38:38;;;;;;;33.95;17.75;;;1.80;1.00;;;;;;6202734;22;39008;-92
2023/01/26 04:00:07;;;;;;;33.60;18.05;;;1.80;1.00;;;;;;6193041;22;20263;-94
2023/01/26 04:09:16;;;;;;;31.20;18.00;;;1.70;1.00;;;;;;6190455;23;20216;-92
2023/01/26 04:24:08;;;;;;;32.10;19.38;;;1.80;1.00;;;;;;6060735;23;20212;-92
2023/01/26 04:26:49;;;;;;;;;;;;;;;;;;;;;
2023/01/26 04:29:27;;;;;;;33.38;18.45;;;1.80;1.00;;;;;;6072146;23;39378;-93
2023/01/26 04:32:40;;;;;;;;;;;;;;;;;;;;;
2023/01/26 04:35:17;;;;;;;38.80;19.75;;;1.70;1.00;;;;;;6089212;23;48604;-92
2023/01/26 04:38:08;;;;;;;35.03;19.23;;;1.70;1.00;;;;;;6216193;22;20232;-93
2023/01/26 04:40:57;;;;;;;31.00;17.52;;;1.70;1.00;;;;;;6119576;22;20189;-91
2023/01/26 04:43:58;;;;;;;35.30;19.08;;;1.60;1.00;;;;;;6247180;22;20209;-90
2023/01/26 04:47:03;;;;;;;33.42;17.70;;;1.70;1.00;;;;;;6051391;23;20225;-90
2023/01/26 04:50:00;;;;;;;;;;;;;;;;;;;;;
2023/01/26 04:52:35;;;;;;;36.95;19.73;;;1.70;1.00;;;;;;6100617;22;42342;-82
2023/01/26 04:55:06;;;;;;;38.03;20.15;;;1.70;1.00;;;;;;6115862;23;20215;-83
2023/01/26 04:57:42;;;;;;;34.13;17.92;;;1.70;1.00;;;;;;6123788;23;20721;-82
2023/01/26 05:00:15;;;;;;;34.28;18.83;;;1.70;1.00;;;;;;6111405;23;20791;-81
2023/01/26 05:02:47;;;;;;;29.60;17.67;;;1.70;1.00;;;;;;6100412;23;20247;-81
2023/01/26 05:05:30;;;;;;;32.60;18.17;;;1.70;1.00;;;;;;6106185;23;20227;-82
2023/01/26 05:08:10;;;;;;;;;;;;;;;;;;;;;
2023/01/26 05:10:41;;;;;;;32.25;18.52;;;1.70;1.00;;;;;;6083218;23;51486;-82
2023/01/26 05:13:38;;;;;;;26.13;15.95;;;1.60;1.00;;;;;;6096490;23;20215;-82
2023/01/26 05:16:38;;;;;;;28.40;16.55;;;1.70;1.00;;;;;;6094506;23;20239;-82
2023/01/26 05:19:28;;;;;;;32.15;17.05;;;1.70;1.00;;;;;;5940597;23;20278;-81
2023/01/26 05:22:01;;;;;;;28.63;17.20;;;1.70;1.00;;;;;;6059547;23;20314;-84
2023/01/26 05:24:31;;;;;;;34.55;17.88;;;1.70;1.00;;;;;;6084613;23;20220;-83
2023/01/26 05:27:21;;;;;;;27.38;15.70;;;1.80;1.00;;;;;;6104149;23;20195;-83
2023/01/26 05:29:49;;;;;;;27.77;15.20;;;1.70;1.00;;;;;;6095127;23;20220;-83
2023/01/26 05:32:30;;;;;;;29.75;14.93;;;1.80;1.00;;;;;;6084486;23;20215;-82
2023/01/26 05:35:00;;;;;;;26.52;14.13;;;1.80;1.00;;;;;;6084627;23;20216;-83
2023/01/26 05:37:48;;;;;;;;;;;;;;;;;;;;;
2023/01/26 05:46:09;;;;;;;23.98;13.73;;;1.80;1.00;;;;;;6071068;23;20248;-84
2023/01/26 05:48:48;;;;;;;22.63;12.15;;;1.80;1.00;;;;;;6068020;23;21032;-82
2023/01/26 05:51:24;;;;;;;21.85;13.10;;;1.80;1.00;;;;;;6096597;23;20239;-84
2023/01/26 05:53:58;;;;;;;26.85;13.90;;;1.80;1.00;;;;;;6143766;23;20680;-84
2023/01/26 05:56:30;;;;;;;20.52;12.25;;;1.80;1.00;;;;;;6123553;23;20226;-83
2023/01/26 05:59:02;;;;;;;22.38;11.43;;;1.70;1.00;;;;;;6133736;23;20999;-83
2023/01/26 06:01:30;;;;;;;20.67;10.73;;;1.70;1.00;;;;;;6134506;23;20225;-81
2023/01/26 06:03:59;;;;;;;20.65;11.30;;;1.60;1.00;;;;;;6138419;23;21142;-85
2023/01/26 06:06:29;;;;;;;22.83;11.68;;;1.60;1.00;;;;;;6130858;23;20187;-85
2023/01/26 06:11:49;;;;;;;25.38;10.63;;;1.50;1.00;;;;;;6129133;23;21130;-85
2023/01/26 06:14:24;;;;;;;26.25;12.63;;;1.50;1.00;;;;;;6151272;23;20238;-85
2023/01/26 06:16:53;;;;;;;23.27;11.98;;;1.60;1.00;;;;;;6142773;23;20278;-84
2023/01/26 06:19:27;;;;;;;24.02;12.88;;;1.70;1.00;;;;;;6113350;23;20282;-83
2023/01/26 06:21:56;;;;;;;26.92;12.90;;;1.70;1.00;;;;;;6130902;23;20210;-83
2023/01/26 06:24:39;;;;;;;22.38;11.38;;;1.70;1.00;;;;;;6150404;23;21063;-85
2023/01/26 06:27:13;;;;;;;28.23;11.45;;;1.70;1.00;;;;;;6129623;23;20259;-84
2023/01/26 06:29:40;;;;;;;39.65;16.35;;;1.70;1.00;;;;;;6136525;23;20219;-85
2023/01/26 06:32:08;;;;;;;31.42;15.43;;;1.70;1.00;;;;;;6143456;23;20258;-85
2023/01/26 06:34:46;;;;;;;29.42;14.68;;;1.80;1.00;;;;;;6131273;23;20214;-85
2023/01/26 06:40:21;;;;;;;28.52;16.33;;;1.70;1.00;;;;;;6111502;23;20222;-86
2023/01/26 06:43:01;;;;;;;32.92;15.93;;;1.70;1.00;;;;;;6129209;23;20214;-85
2023/01/26 06:45:31;;;;;;;27.95;15.93;;;1.70;1.00;;;;;;6121145;23;20359;-84
2023/01/26 06:48:08;;;;;;;26.48;14.40;;;1.80;1.00;;;;;;6132918;23;20220;-85
2023/01/26 06:50:40;;;;;;;28.60;15.15;;;1.80;1.00;;;;;;6131450;23;20214;-85
2023/01/26 06:53:31;;;;;;;27.75;13.13;;;1.80;1.00;;;;;;6142605;23;20215;-85
2023/01/26 06:56:01;;;;;;;27.88;13.63;;;1.80;1.00;;;;;;6125589;23;20211;-84
2023/01/26 06:58:42;;;;;;;;;;;;;;;;;;;;;
2023/01/26 07:01:29;;;;;;;28.65;12.63;;;1.80;1.00;;;;;;6131007;23;41722;-84
2023/01/26 07:05:00;;;;;;;;;;;;;;;;;;;;;
2023/01/26 07:07:40;;;;;;;21.73;11.75;;;1.70;1.00;;;;;;5999104;23;48656;-85
2023/01/26 07:13:37;;;;;;;29.90;12.90;;;1.60;1.00;;;;;;6144563;23;20288;-84
2023/01/26 07:16:30;;;;;;;21.85;11.32;;;1.70;1.00;;;;;;6129408;23;20297;-83
2023/01/26 07:25:51;;;;;;;;;;;;;;;;;;;;;
2023/01/26 07:38:02;;;;;;;25.40;12.50;;;1.90;1.00;;;;;;6139263;23;20220;-82
2023/01/26 07:40:39;;;;;;;22.83;11.23;;;1.80;1.00;;;;;;6156785;23;21066;-85
2023/01/26 07:43:50;;;;;;;24.52;12.07;;;1.70;1.00;;;;;;6156509;23;20975;-84
2023/01/26 07:46:31;;;;;;;28.13;13.77;;;1.70;1.00;;;;;;6133775;23;20253;-84
2023/01/26 07:55:13;;;;;;;26.30;12.38;;;1.70;1.00;;;;;;6051515;23;20287;-83
2023/01/26 07:57:49;;;;;;;26.02;13.02;;;1.70;1.00;;;;;;6126469;23;20277;-84
2023/01/26 08:00:21;;;;;;;26.02;12.50;;;1.70;1.00;;;;;;6112344;23;20207;-83
2023/01/26 08:02:58;;;;;;;28.67;12.68;;;1.70;1.00;;;;;;6112854;23;20222;-84
2023/01/26 08:08:27;;;;;;;26.80;11.60;;;1.60;1.00;;;;;;6119720;23;20194;-83
2023/01/26 08:11:32;;;;;;;26.25;13.93;;;1.50;1.00;;;;;;6141927;23;20211;-84
2023/01/26 08:14:01;;;;;;;27.52;14.50;;;1.40;1.00;;;;;;6142316;23;20270;-83
2023/01/26 08:16:31;;;;;;;25.50;12.98;;;1.50;1.00;;;;;;6105027;23;20730;-83
2023/01/26 08:19:07;;;;;;;22.65;10.55;;;1.50;1.00;;;;;;6145755;23;20211;-84
2023/01/26 08:22:09;;;;;;;20.85;10.50;;;1.50;1.00;;;;;;6118290;23;20251;-87
2023/01/26 08:24:37;;;;;;;20.63;10.55;;;1.50;1.00;;;;;;6161290;23;20206;-86
2023/01/26 08:27:10;;;;;;;26.15;13.57;;;1.50;1.00;;;;;;6092535;23;20209;-83
2023/01/26 08:29:44;;;;;;;26.50;12.85;;;1.60;1.00;;;;;;6063497;23;20221;-84
2023/01/26 08:32:16;;;;;;;25.60;13.25;;;1.50;1.00;;;;;;6067726;23;20933;-83
2023/01/26 08:35:00;;;;;;;30.20;12.95;;;1.50;1.00;;;;;;6109445;23;20309;-83
2023/01/26 08:37:34;;;;;;;23.92;12.43;;;1.40;1.00;;;;;;6085668;23;20301;-84
2023/01/26 08:40:10;;;;;;;25.83;11.70;;;1.50;1.00;;;;;;6129814;23;20243;-85
2023/01/26 08:42:58;;;;;;;22.92;11.95;;;1.60;1.00;;;;;;6122388;23;20266;-86
2023/01/26 08:45:49;;;;;;;26.13;11.32;;;1.60;1.00;;;;;;6110365;23;20222;-86
2023/01/26 08:48:42;;;;;;;26.38;13.52;;;1.60;1.00;;;;;;6018504;23;20970;-84
2023/01/26 08:51:29;;;;;;;22.40;13.43;;;1.50;1.00;;;;;;6011346;23;20217;-84
2023/01/26 08:54:11;;;;;;;21.73;11.45;;;1.60;1.00;;;;;;6065320;23;20221;-85
2023/01/26 08:56:41;;;;;;;27.67;11.85;;;1.50;1.00;;;;;;6130714;23;20217;-86
2023/01/26 08:59:10;;;;;;;23.30;11.40;;;1.60;1.00;;;;;;6147195;23;20215;-88
2023/01/26 09:01:44;;;;;;;21.15;11.15;;;1.50;1.00;;;;;;6142440;23;20718;-88
2023/01/26 09:04:11;;;;;;;22.88;11.05;;;1.50;1.00;;;;;;6142916;23;20950;-86
2023/01/26 09:06:40;;;;;;;33.28;13.55;;;1.50;1.00;;;;;;6171357;23;20285;-86
2023/01/26 09:11:59;;;;;;;24.33;14.52;;;1.50;1.00;;;;;;6140086;23;20234;-88
2023/01/26 09:14:42;;;;;;;20.65;10.57;;;1.40;1.00;;;;;;6139817;23;20270;-86
2023/01/26 09:17:10;;;;;;;25.17;11.50;;;1.40;1.00;;;;;;6159284;23;20210;-85
2023/01/26 09:19:50;;;;;;;21.70;11.95;;;1.30;1.00;;;;;;6157554;23;20217;-86
2023/01/26 09:25:32;;;;;;;23.73;12.38;;;1.20;1.00;;;;;;6160253;23;20241;-87
2023/01/26 09:27:59;;;;;;;21.70;12.70;;;1.20;1.00;;;;;;6139037;23;20676;-83
2023/01/26 09:30:32;;;;;;;21.45;12.20;;;1.30;1.00;;;;;;6132328;23;20663;-82
2023/01/26 09:33:01;;;;;;;23.95;11.70;;;1.30;1.00;;;;;;6163825;23;20258;-88
2023/01/26 09:35:30;;;;;;;19.85;11.52;;;1.30;1.00;;;;;;6143900;23;20270;-88
2023/01/26 09:38:12;;;;;;;24.27;13.07;;;1.30;1.00;;;;;;6153261;23;21064;-90
2023/01/26 09:41:17;;;;;;;;;;;;;;;;;;;;;
2023/01/26 09:47:20;;;;;;;25.23;13.13;;;1.40;1.00;;;;;;6007391;23;20217;-87
2023/01/26 09:50:16;;;;;;;22.20;11.63;;;1.40;1.00;;;;;;6089383;23;20993;-89
2023/01/26 09:52:52;;;;;;;23.17;12.13;;;1.40;1.00;;;;;;6143696;23;20220;-89
2023/01/26 09:55:22;;;;;;;21.33;12.23;;;1.40;1.00;;;;;;6135345;23;20245;-88
2023/01/26 09:58:08;;;;;;;21.45;12.20;;;1.50;1.00;;;;;;6133268;23;20210;-91
2023/01/26 10:00:50;;;;;;;19.30;12.02;;;1.50;1.00;;;;;;6132002;23;20223;-90
2023/01/26 10:03:42;;;;;;;21.77;12.80;;;1.50;1.00;;;;;;6156713;23;20207;-90
2023/01/26 10:06:34;;;;;;;;;;;;;;;;;;;;;
2023/01/26 10:09:09;;;;;;;23.90;13.68;;;1.60;1.00;;;;;;6150989;23;38830;-89
2023/01/26 10:12:02;;;;;;;23.33;13.27;;;1.60;1.00;;;;;;6130072;23;20229;-87
2023/01/26 10:14:52;;;;;;;28.52;12.65;;;1.60;1.00;;;;;;6131185;23;20979;-83
2023/01/26 10:17:31;;;;;;;24.58;13.05;;;1.60;1.00;;;;;;6116270;23;20602;-81
2023/01/26 10:20:18;;;;;;;21.70;11.15;;;1.50;1.00;;;;;;6130403;23;20210;-82
2023/01/26 10:22:48;;;;;;;19.73;11.40;;;1.50;1.00;;;;;;6131312;23;20223;-82
2023/01/26 10:25:29;;;;;;;22.50;11.45;;;1.50;1.00;;;;;;6147196;23;20215;-82
2023/01/26 10:28:05;;;;;;;19.10;10.30;;;1.50;1.00;;;;;;6146865;23;20211;-83
2023/01/26 10:30:32;;;;;;;23.05;11.85;;;1.50;1.00;;;;;;6157335;23;20223;-83
2023/01/26 10:33:00;;;;;;;20.67;11.13;;;1.50;1.00;;;;;;6123045;23;20961;-80
2023/01/26 10:35:31;;;;;;;21.50;12.30;;;1.60;1.00;;;;;;6127082;23;20217;-81
2023/01/26 10:38:01;;;;;;;19.10;10.80;;;1.60;1.00;;;;;;6145760;23;20227;-82
2023/01/26 10:40:52;;;;;;;20.33;10.15;;;1.60;1.00;;;;;;6152777;23;20215;-88
2023/01/26 10:43:19;;;;;;;18.25;9.80;;;1.60;1.00;;;;;;6093456;23;20296;-86
2023/01/26 10:45:54;;;;;;;22.45;11.77;;;1.60;1.00;;;;;;6101027;23;20963;-82
2023/01/26 10:51:28;;;;;;;22.75;11.75;;;1.50;1.00;;;;;;6112837;23;20211;-83
2023/01/26 10:54:23;;;;;;;26.48;11.93;;;1.60;1.00;;;;;;6134121;23;20271;-83
2023/01/26 10:56:59;;;;;;;20.85;11.05;;;1.50;1.00;;;;;;6105723;23;20207;-84
2023/01/26 10:59:38;;;;;;;22.48;10.60;;;1.60;1.00;;;;;;6109869;23;20295;-82
2023/01/26 11:02:22;;;;;;;22.23;12.00;;;1.60;1.00;;;;;;6121803;23;20210;-83
2023/01/26 11:05:32;;;;;;;20.38;11.25;;;1.70;1.00;;;;;;6120376;23;20219;-83
2023/01/26 11:08:05;;;;;;;21.23;11.43;;;1.70;1.00;;;;;;6133918;23;20212;-83
2023/01/26 11:42:32;;;;;;;22.25;11.27;;;1.80;1.00;;;;;;5924592;23;20242;-84
2023/01/26 11:45:18;;;;;;;22.90;12.23;;;1.80;1.00;;;;;;6065989;23;21040;-85
2023/01/26 11:51:10;;;;;;;25.02;15.20;;;1.90;1.00;;;;;;6046066;23;20248;-85
2023/01/26 12:03:02;;;;;;;28.60;14.65;;;1.70;1.00;;;;;;6140562;23;20291;-83
2023/01/26 12:08:37;;;;;;;23.85;13.60;;;1.60;1.00;;;;;;6118562;23;20218;-85
2023/01/26 12:11:31;;;;;;;21.98;14.40;;;1.60;1.00;;;;;;6134328;23;20225;-84
2023/01/26 12:17:38;;;;;;;26.02;13.30;;;1.70;1.00;;;;;;6088152;22;20211;-84
2023/01/26 12:20:40;;;;;;;22.65;13.07;;;1.80;1.00;;;;;;6143499;23;20194;-84
2023/01/26 12:23:28;;;;;;;22.40;11.38;;;1.80;1.00;;;;;;6153983;23;20215;-85
2023/01/26 12:26:21;;;;;;;23.40;13.07;;;1.90;1.00;;;;;;6145697;23;20222;-87
2023/01/26 12:34:43;;;;;;;29.92;15.52;;;1.80;1.00;;;;;;6126872;23;20420;-80
2023/01/26 12:37:48;;;;;;;24.17;13.48;;;1.80;1.00;;;;;;6116385;23;20272;-82
2023/01/26 12:40:50;;;;;;;22.38;12.05;;;1.90;1.00;;;;;;6117824;23;20226;-81
2023/01/26 12:43:28;;;;;;;18.10;8.98;;;2.00;1.00;;;;;;6011681;23;20278;-80
2023/01/26 12:46:02;;;;;;;17.67;10.00;;;2.00;1.00;;;;;;6094479;23;20210;-81
2023/01/26 12:48:42;;;;;;;23.10;12.05;;;2.00;1.00;;;;;;6114099;23;20267;-80
2023/01/26 12:51:21;;;;;;;17.20;9.88;;;1.90;1.00;;;;;;6147557;23;20206;-80
2023/01/26 12:54:03;;;;;;;25.98;12.10;;;1.90;1.00;;;;;;6146715;23;20215;-81
2023/01/26 13:02:40;;;;;;;20.45;11.10;;;2.10;1.00;;;;;;6058139;23;20250;-82
2023/01/26 13:05:32;;;;;;;19.83;11.75;;;2.10;1.00;;;;;;6128476;23;20250;-82
2023/01/26 13:08:40;;;;;;;19.50;12.20;;;2.00;1.00;;;;;;6148824;23;20230;-83
2023/01/26 13:11:09;;;;;;;19.42;11.68;;;2.00;1.00;;;;;;6048478;23;21086;-82
2023/01/26 13:13:53;;;;;;;22.65;14.77;;;1.90;1.00;;;;;;6165227;23;20290;-82
2023/01/26 13:16:49;;;;;;;21.67;13.52;;;1.90;1.00;;;;;;6162468;23;20202;-82
2023/01/26 13:19:52;;;;;;;22.85;13.15;;;1.80;1.00;;;;;;6151318;23;20206;-82
2023/01/26 13:22:42;;;;;;;22.52;12.70;;;1.80;1.00;;;;;;6138921;23;20202;-82
2023/01/26 13:25:51;;;;;;;22.13;13.40;;;1.70;1.00;;;;;;6145211;23;20210;-82
2023/01/26 13:28:52;;;;;;;21.23;12.32;;;1.60;1.00;;;;;;6149888;23;20222;-83
2023/01/26 13:34:48;;;;;;;21.08;12.60;;;1.60;1.00;;;;;;6144714;23;20226;-82
2023/01/26 13:37:33;;;;;;;24.23;12.57;;;1.60;1.00;;;;;;6127752;23;20218;-83
2023/01/26 13:40:21;;;;;;;25.15;13.50;;;1.70;1.00;;;;;;6146666;23;20211;-81
2023/01/26 13:43:01;;;;;;;19.48;11.80;;;1.60;1.00;;;;;;6139651;23;21029;-83
2023/01/26 13:45:39;;;;;;;24.48;11.75;;;1.60;1.00;;;;;;6120863;23;20287;-81
2023/01/26 13:48:20;;;;;;;17.27;9.80;;;1.70;1.00;;;;;;6129707;23;20363;-82
2023/01/26 13:50:51;;;;;;;17.83;9.27;;;1.80;1.00;;;;;;6137591;23;20815;-81
2023/01/26 13:53:37;;;;;;;18.53;10.27;;;1.70;1.00;;;;;;6118063;23;20470;-82
2023/01/26 13:56:14;;;;;;;18.83;9.70;;;1.70;1.00;;;;;;6111756;23;20415;-86
2023/01/26 13:58:44;;;;;;;18.58;9.70;;;1.70;1.00;;;;;;6131311;23;20301;-82
2023/01/26 14:01:20;;;;;;;15.73;8.75;;;1.70;1.00;;;;;;6127085;23;20544;-84
2023/01/26 14:04:12;;;;;;;20.58;9.30;;;1.70;1.00;;;;;;6108955;23;20318;-83
2023/01/26 14:06:52;;;;;;;17.63;9.98;;;1.80;1.00;;;;;;6150039;23;20252;-82
2023/01/26 14:09:27;;;;;;;19.40;11.18;;;1.80;1.00;;;;;;6152289;23;20280;-85
2023/01/26 14:12:13;;;;;;;17.13;9.13;;;1.90;1.00;;;;;;6121635;23;20195;-85
2023/01/26 14:14:54;;;;;;;18.13;9.20;;;1.90;1.00;;;;;;6101458;23;20212;-85
2023/01/26 14:20:32;;;;;;;19.98;10.63;;;1.80;1.00;;;;;;6074948;23;20214;-85
2023/01/26 14:23:12;;;;;;;18.40;11.13;;;1.80;1.00;;;;;;6098240;23;20234;-83
2023/01/26 14:25:51;;;;;;;18.35;10.40;;;1.80;1.00;;;;;;6134821;23;20392;-83
2023/01/26 14:28:31;;;;;;;20.25;11.70;;;1.70;1.00;;;;;;6123428;23;20226;-83
2023/01/26 14:31:11;;;;;;;22.42;11.50;;;1.70;1.00;;;;;;6125895;23;20222;-86
2023/01/26 14:33:50;;;;;;;21.52;12.50;;;1.80;1.00;;;;;;6139673;23;20230;-84
2023/01/26 14:36:25;;;;;;;23.40;13.63;;;1.80;1.00;;;;;;6140472;23;20242;-90
2023/01/26 14:38:55;;;;;;;20.88;10.32;;;1.80;1.00;;;;;;6168855;23;20224;-86
2023/01/26 14:41:52;;;;;;;24.73;11.60;;;1.80;1.00;;;;;;6114211;23;20282;-88
2023/01/26 14:44:25;;;;;;;19.42;11.63;;;1.80;1.00;;;;;;6163821;23;20305;-85
2023/01/26 14:47:13;;;;;;;17.92;10.30;;;1.90;1.00;;;;;;6149628;23;20983;-82
2023/01/26 14:49:52;;;;;;;18.88;10.18;;;1.90;1.00;;;;;;6125562;23;20258;-82
2023/01/26 14:58:33;;;;;;;18.70;11.55;;;1.80;1.00;;;;;;6119089;23;20778;-82
2023/01/26 15:01:03;;;;;;;23.17;12.63;;;1.70;1.00;;;;;;6132669;23;20223;-80
2023/01/26 15:03:45;;;;;;;20.27;12.45;;;1.70;1.00;;;;;;6129659;23;20351;-81
2023/01/26 15:06:33;;;;;;;23.30;11.68;;;1.70;1.00;;;;;;6135047;23;20224;-81
2023/01/26 15:09:24;;;;;;;24.45;11.82;;;1.70;1.00;;;;;;6137317;23;20955;-83
2023/01/26 15:15:02;;;;;;;25.40;12.38;;;1.80;1.00;;;;;;6115350;23;21093;-80
2023/01/26 15:17:44;;;;;;;21.48;11.73;;;1.90;1.00;;;;;;6124846;23;20250;-82
2023/01/26 15:20:45;;;;;;;19.65;10.65;;;1.90;1.00;;;;;;6116435;23;20221;-81
2023/01/26 15:23:29;;;;;;;20.83;11.48;;;1.80;1.00;;;;;;6138299;23;20971;-83
2023/01/26 15:26:13;;;;;;;19.48;11.57;;;1.90;1.00;;;;;;6143297;23;20222;-84
2023/01/26 15:29:03;;;;;;;18.55;10.65;;;1.80;1.00;;;;;;6107064;23;20246;-84
2023/01/26 15:31:52;;;;;;;22.52;12.32;;;1.80;1.00;;;;;;6128747;23;20220;-83
2023/01/26 15:34:44;;;;;;;21.58;11.95;;;1.90;1.00;;;;;;6132192;23;20206;-84
2023/01/26 15:40:34;;;;;;;23.80;12.57;;;1.90;1.00;;;;;;6132189;23;20349;-81
2023/01/26 15:43:18;;;;;;;23.77;13.30;;;1.80;1.00;;;;;;6147170;23;20925;-82
2023/01/26 15:45:58;;;;;;;21.70;12.35;;;1.70;1.00;;;;;;6128587;23;20278;-81
2023/01/26 15:48:36;;;;;;;31.05;13.60;;;1.70;1.00;;;;;;6122812;23;20213;-82
2023/01/26 15:51:12;;;;;;;21.25;12.48;;;1.70;1.00;;;;;;6138984;23;20194;-83
2023/01/26 15:56:34;;;;;;;24.92;14.50;;;1.60;1.00;;;;;;5988806;23;21329;-85
2023/01/26 15:59:05;;;;;;;24.80;14.00;;;1.60;1.00;;;;;;6028035;23;20217;-84
2023/01/26 16:01:43;;;;;;;29.17;16.15;;;1.60;1.00;;;;;;6127400;23;20220;-85
2023/01/26 16:04:12;;;;;;;24.42;14.13;;;1.60;1.00;;;;;;6148770;23;20213;-85
2023/01/26 16:06:45;;;;;;;27.02;16.08;;;1.60;1.00;;;;;;6155635;23;20212;-83
2023/01/26 16:09:13;;;;;;;27.25;15.90;;;1.70;1.00;;;;;;6106208;23;20218;-83
2023/01/26 16:11:50;;;;;;;33.63;17.25;;;1.60;1.00;;;;;;6107284;23;20236;-84
2023/01/26 16:14:26;;;;;;;27.55;15.55;;;1.60;1.00;;;;;;6107552;23;20214;-82
2023/01/26 16:16:53;;;;;;;26.15;14.60;;;1.60;1.00;;;;;;6110080;23;20240;-84
2023/01/26 16:19:25;;;;;;;34.40;18.20;;;1.60;1.00;;;;;;6108069;23;20239;-84
2023/01/26 16:21:52;;;;;;;31.17;16.42;;;1.40;1.00;;;;;;6132757;23;20218;-82
2023/01/26 16:24:26;;;;;;;27.70;15.02;;;1.40;1.00;;;;;;6110509;23;20215;-85
2023/01/26 16:27:06;;;;;;;31.08;16.65;;;1.30;1.00;;;;;;6126174;23;20217;-84
2023/01/26 16:29:41;;;;;;;29.15;14.50;;;1.40;1.00;;;;;;6120130;23;22067;-86
2023/01/26 16:32:43;;;;;;;28.83;16.17;;;1.40;1.00;;;;;;6145346;23;20861;-86
2023/01/26 16:35:23;;;;;;;31.40;14.55;;;1.40;1.00;;;;;;6042989;23;20325;-83
2023/01/26 16:37:54;;;;;;;27.10;14.35;;;1.40;1.00;;;;;;6147886;23;20210;-85
2023/01/26 16:40:32;;;;;;;29.95;15.30;;;1.50;1.00;;;;;;6146312;23;20214;-85
2023/01/26 16:43:05;;;;;;;27.10;13.55;;;1.50;1.00;;;;;;6147942;23;20249;-87
2023/01/26 16:45:34;;;;;;;23.60;14.13;;;1.50;1.00;;;;;;6126484;23;20218;-88
2023/01/26 16:48:36;;;;;;;;;;;;;;;;;;;;;
2023/01/26 16:51:15;;;;;;;24.65;13.60;;;1.50;1.00;;;;;;6143099;23;50691;-85
2023/01/26 16:53:45;;;;;;;25.38;13.77;;;1.50;1.00;;;;;;6115619;23;20739;-86
2023/01/26 16:56:13;;;;;;;24.88;14.13;;;1.50;1.00;;;;;;6151946;23;20289;-87
2023/01/26 16:58:43;;;;;;;25.50;13.10;;;1.40;1.00;;;;;;6132353;23;20298;-86
2023/01/26 17:01:31;;;;;;;25.40;13.80;;;1.40;1.00;;;;;;6138488;23;21014;-87
2023/01/26 17:04:04;;;;;;;24.88;13.43;;;1.40;1.00;;;;;;6152472;22;20298;-85
2023/01/26 17:06:32;;;;;;;24.75;14.55;;;1.30;1.00;;;;;;6108607;23;21286;-87
2023/01/26 17:09:14;;;;;;;26.15;13.73;;;1.30;1.00;;;;;;6139870;23;20251;-86
2023/01/26 17:11:43;;;;;;;25.42;14.20;;;1.30;1.00;;;;;;6095949;23;20214;-86
2023/01/26 17:14:24;;;;;;;26.63;13.85;;;1.30;1.00;;;;;;6131435;23;20999;-84
2023/01/26 17:16:55;;;;;;;25.17;13.10;;;1.20;1.00;;;;;;6128448;23;20316;-86
2023/01/26 17:19:36;;;;;;;25.75;14.05;;;1.20;1.00;;;;;;6129517;23;21112;-86
2023/01/26 17:22:03;;;;;;;25.27;14.98;;;1.20;1.00;;;;;;6138984;23;20792;-87
2023/01/26 17:24:46;;;;;;;;;;;;;;;;;;;;;
2023/01/26 17:27:22;;;;;;;29.33;14.35;;;1.30;1.00;;;;;;6132392;22;41694;-83
2023/01/26 17:29:54;;;;;;;26.40;14.88;;;1.40;1.00;;;;;;6150393;23;20205;-87
2023/01/26 17:32:46;;;;;;;24.52;13.93;;;1.40;1.00;;;;;;6130590;23;20230;-88
2023/01/26 17:35:14;;;;;;;29.08;16.00;;;1.40;1.00;;;;;;6148856;23;20262;-84
2023/01/26 17:37:43;;;;;;;27.42;14.57;;;1.40;1.00;;;;;;6147286;23;20221;-88
2023/01/26 17:40:13;;;;;;;22.23;12.82;;;1.40;1.00;;;;;;6135902;22;20207;-86
2023/01/26 17:42:54;;;;;;;26.40;13.60;;;1.50;1.00;;;;;;6148181;23;20710;-89
2023/01/26 17:45:23;;;;;;;23.40;13.88;;;1.50;1.00;;;;;;6144592;23;20203;-87
2023/01/26 17:47:53;;;;;;;27.40;14.93;;;1.40;1.00;;;;;;6117922;23;20310;-85
2023/01/26 17:50:25;;;;;;;25.40;14.02;;;1.50;1.00;;;;;;6130265;23;20215;-88
2023/01/26 17:52:55;;;;;;;28.58;15.30;;;1.40;1.00;;;;;;6153822;23;20593;-86
2023/01/26 17:55:24;;;;;;;27.30;16.05;;;1.40;1.00;;;;;;6147018;23;20885;-88
2023/01/26 17:57:53;;;;;;;25.67;15.48;;;1.40;1.00;;;;;;6147486;23;20214;-87
2023/01/26 18:00:23;;;;;;;27.48;14.13;;;1.40;1.00;;;;;;6146621;23;20223;-87
2023/01/26 18:06:04;;;;;;;27.50;14.52;;;1.50;1.00;;;;;;6163212;23;20242;-85
2023/01/26 18:08:41;;;;;;;29.95;14.30;;;1.50;1.00;;;;;;6174726;23;20266;-84
2023/01/26 18:11:17;;;;;;;24.27;13.35;;;1.50;1.00;;;;;;6163590;23;20956;-86
2023/01/26 18:13:44;;;;;;;28.05;14.27;;;1.50;1.00;;;;;;6137804;23;20210;-84
2023/01/26 18:19:05;;;;;;;24.35;13.68;;;1.50;1.00;;;;;;6137545;23;20262;-86
2023/01/26 18:21:35;;;;;;;25.48;14.43;;;1.50;1.00;;;;;;6137614;23;20219;-87
2023/01/26 18:24:06;;;;;;;23.23;13.32;;;1.50;1.00;;;;;;6139172;23;20211;-88
2023/01/26 18:26:45;;;;;;;27.00;14.63;;;1.60;1.00;;;;;;6145261;23;20206;-87
2023/01/26 18:29:16;;;;;;;22.40;13.02;;;1.60;1.00;;;;;;6144381;23;20211;-89
2023/01/26 18:32:09;;;;;;;;;;;;;;;;;;;;;
2023/01/26 18:34:44;;;;;;;27.05;14.82;;;1.60;1.00;;;;;;6129984;22;50890;-85
2023/01/26 18:37:23;;;;;;;26.50;13.15;;;1.60;1.00;;;;;;6171100;23;20249;-85
2023/01/26 18:40:03;;;;;;;25.08;14.18;;;1.60;1.00;;;;;;6151489;23;20214;-89
2023/01/26 18:42:35;;;;;;;21.50;12.57;;;1.60;1.00;;;;;;6174444;23;20265;-89
2023/01/26 18:45:08;;;;;;;24.80;14.73;;;1.60;1.00;;;;;;6174453;23;20300;-86
2023/01/26 18:47:35;;;;;;;25.38;15.00;;;1.60;1.00;;;;;;6149535;23;21142;-88
2023/01/26 18:50:13;;;;;;;23.08;13.30;;;1.60;1.00;;;;;;6152452;23;21131;-85
2023/01/26 18:52:44;;;;;;;27.17;14.00;;;1.50;1.00;;;;;;6175942;23;20211;-87
2023/01/26 18:55:24;;;;;;;25.92;15.52;;;1.50;1.00;;;;;;6180227;23;20978;-89